Terminal Aerodrome Forecast
Issued by NWS

Home | Current Version | Previous Version | Graphics & Text | Print | Product List | Glossary On
Versions: 1 2 3 4 5 6 7 8 9 10 11 12 13
834
FTUS43 KICT 020520
TAFRSL
TAF
KRSL 020520Z 0206/0306 02012KT P6SM BKN035
     FM021500 33010KT P6SM SCT035 SCT150
     FM022200 34009KT P6SM SCT050
     FM030100 03006KT P6SM SCT250=

USA.gov is the U.S. government's official web portal to all federal, state and local government web resources and services.